Time;durP1;ratioP1;P1;durP2;ratioP2;P2;SDS_P1;SDS_P2;PMS_P1;PMS_P2;Temp;Humidity;BMP_temperature;BMP_pressure;BME280_temperature;BME280_humidity;BME280_pressure;Samples;Min_cycle;Max_cycle;Signal;HPM_P1;HPM_P2
2020/12/30 00:03:37;;;;;;;30.25;18.50;;;;;;;3.40;86.05;99258.16;10231406;28;20073;-67
2020/12/30 00:08:33;;;;;;;28.67;19.45;;;;;;;3.45;86.53;99255.31;10205834;28;20056;-67
2020/12/30 00:13:29;;;;;;;30.88;19.23;;;;;;;3.37;86.69;99262.25;10202000;28;20056;-68
2020/12/30 00:18:25;;;;;;;33.67;22.17;;;;;;;3.46;86.88;99262.34;10200200;28;20045;-67
2020/12/30 00:23:24;;;;;;;31.30;19.92;;;;;;;3.42;86.99;99272.16;10194670;28;20648;-66
2020/12/30 00:28:23;;;;;;;32.78;18.85;;;;;;;3.39;86.42;99272.78;10214250;28;20067;-68
2020/12/30 00:33:19;;;;;;;34.13;21.77;;;;;;;3.51;86.35;99267.63;10232964;28;20049;-67
2020/12/30 00:38:15;;;;;;;36.65;23.02;;;;;;;3.40;86.36;99274.34;10214665;28;20107;-67
2020/12/30 00:43:11;;;;;;;38.63;24.85;;;;;;;3.51;86.39;99275.72;10227969;28;20048;-66
2020/12/30 00:48:07;;;;;;;39.25;24.63;;;;;;;3.52;85.94;99277.31;10235694;28;20050;-65
2020/12/30 00:53:03;;;;;;;43.22;25.17;;;;;;;3.50;86.03;99279.53;10236172;28;20126;-66
2020/12/30 00:57:59;;;;;;;40.15;26.65;;;;;;;3.52;85.65;99288.13;10225991;28;20408;-65
2020/12/30 01:02:55;;;;;;;43.08;26.67;;;;;;;3.51;86.17;99291.16;10221614;28;20617;-63
2020/12/30 01:07:51;;;;;;;47.58;30.70;;;;;;;3.45;85.74;99297.75;10228888;28;20045;-66
2020/12/30 01:12:48;;;;;;;48.05;27.08;;;;;;;3.51;85.59;99302.75;10216821;28;20463;-65
2020/12/30 01:17:44;;;;;;;44.75;25.02;;;;;;;3.51;85.36;99308.16;10240464;28;20060;-66
2020/12/30 01:22:40;;;;;;;42.05;26.98;;;;;;;3.60;84.65;99310.94;10211371;28;20053;-67
2020/12/30 01:27:36;;;;;;;44.63;27.08;;;;;;;3.62;84.49;99313.31;10236195;28;20060;-66
2020/12/30 01:32:32;;;;;;;45.45;29.33;;;;;;;3.74;84.52;99332.53;10214704;28;20478;-64
2020/12/30 01:37:28;;;;;;;48.42;29.45;;;;;;;3.70;84.22;99326.91;10238385;28;20060;-64
2020/12/30 01:42:24;;;;;;;43.00;27.05;;;;;;;3.72;83.62;99334.72;10234469;28;20421;-65
2020/12/30 01:47:20;;;;;;;48.15;28.05;;;;;;;3.68;83.63;99328.31;10223287;28;20136;-64
2020/12/30 01:52:16;;;;;;;44.10;26.98;;;;;;;3.66;84.19;99331.31;10244048;28;20040;-65
2020/12/30 01:57:13;;;;;;;43.28;27.25;;;;;;;3.85;83.09;99333.84;10242731;28;20053;-65
2020/12/30 02:02:13;;;;;;;47.47;28.05;;;;;;;3.88;83.03;99349.47;10223350;28;20042;-64
2020/12/30 02:07:10;;;;;;;49.38;30.65;;;;;;;3.85;83.10;99339.25;10208664;28;20045;-65
2020/12/30 02:12:06;;;;;;;42.40;25.73;;;;;;;3.89;82.72;99348.38;10244868;28;20037;-65
2020/12/30 02:17:03;;;;;;;47.42;29.75;;;;;;;3.80;83.04;99344.78;10239199;28;20053;-66
2020/12/30 02:22:02;;;;;;;46.40;29.42;;;;;;;3.69;83.39;99335.31;10246793;28;20072;-66
2020/12/30 02:27:00;;;;;;;44.92;26.95;;;;;;;3.66;83.34;99354.84;10229934;28;20061;-65
2020/12/30 02:31:57;;;;;;;39.35;22.98;;;;;;;3.69;83.29;99348.81;10221801;28;20045;-66
2020/12/30 02:36:53;;;;;;;42.38;25.48;;;;;;;3.58;84.32;99362.59;10226224;28;20065;-66
2020/12/30 02:41:49;;;;;;;44.22;25.42;;;;;;;3.58;83.99;99361.78;10223493;28;20037;-65
2020/12/30 02:46:45;;;;;;;45.65;28.00;;;;;;;3.62;83.80;99357.38;10233888;28;20057;-65
2020/12/30 02:51:43;;;;;;;44.28;25.58;;;;;;;3.65;83.55;99361.38;10240192;28;20516;-65
2020/12/30 02:56:39;;;;;;;42.38;26.10;;;;;;;3.55;83.64;99362.38;10229337;28;20045;-66
2020/12/30 03:01:35;;;;;;;43.15;26.80;;;;;;;3.58;83.75;99362.59;10237304;28;20045;-66
2020/12/30 03:06:31;;;;;;;38.13;24.05;;;;;;;3.67;83.75;99365.38;10233915;28;20124;-68
2020/12/30 03:11:27;;;;;;;38.10;24.75;;;;;;;3.71;83.26;99360.13;10216180;28;20067;-67
2020/12/30 03:16:23;;;;;;;37.10;23.42;;;;;;;3.71;82.36;99365.53;10228609;28;20049;-66
2020/12/30 03:21:19;;;;;;;43.22;25.08;;;;;;;3.60;83.44;99367.69;10223315;28;20500;-65
2020/12/30 03:26:15;;;;;;;38.97;24.25;;;;;;;3.58;83.33;99361.78;10236009;28;20527;-65
2020/12/30 03:31:11;;;;;;;42.15;25.90;;;;;;;3.56;83.50;99364.78;10214147;28;20091;-64
2020/12/30 03:36:08;;;;;;;40.38;24.40;;;;;;;3.54;83.35;99369.69;10210530;28;20491;-66
2020/12/30 03:41:04;;;;;;;41.30;26.67;;;;;;;3.59;83.20;99374.97;10213994;28;20038;-64
2020/12/30 03:46:00;;;;;;;39.83;25.50;;;;;;;3.61;83.07;99376.59;10222361;28;20409;-65
2020/12/30 03:50:56;;;;;;;39.30;24.75;;;;;;;3.67;83.14;99381.59;10235600;28;20057;-67
2020/12/30 03:55:53;;;;;;;38.08;25.00;;;;;;;3.60;83.05;99381.22;10235803;28;20132;-66
2020/12/30 04:00:49;;;;;;;34.90;23.23;;;;;;;3.55;82.80;99392.09;10235691;28;20123;-65
2020/12/30 04:05:44;;;;;;;35.22;22.73;;;;;;;3.64;82.30;99375.97;10229170;28;20075;-66
2020/12/30 04:10:40;;;;;;;35.38;20.83;;;;;;;3.53;82.36;99388.94;10224995;28;20568;-65
2020/12/30 04:15:36;;;;;;;36.13;22.75;;;;;;;3.57;82.46;99398.00;10239626;28;20041;-66
2020/12/30 04:20:32;;;;;;;34.25;21.70;;;;;;;3.67;82.05;99405.13;10226583;28;20096;-65
2020/12/30 04:25:28;;;;;;;35.22;22.63;;;;;;;3.67;82.50;99402.44;10227618;28;20064;-66
2020/12/30 04:30:24;;;;;;;37.70;22.27;;;;;;;3.66;82.02;99406.22;10208246;28;20140;-66
2020/12/30 04:35:21;;;;;;;38.05;22.95;;;;;;;3.59;82.35;99418.22;10224399;28;20443;-66
2020/12/30 04:40:17;;;;;;;36.22;22.88;;;;;;;3.60;82.46;99424.47;10239874;28;20061;-66
2020/12/30 04:45:13;;;;;;;36.45;22.88;;;;;;;3.71;81.87;99414.22;10234433;28;20059;-65
2020/12/30 04:50:09;;;;;;;35.63;23.95;;;;;;;3.75;81.96;99420.63;10216953;28;20547;-65
2020/12/30 04:55:06;;;;;;;41.95;24.02;;;;;;;3.63;82.26;99426.53;10217675;28;20045;-66
2020/12/30 05:00:05;;;;;;;39.35;24.73;;;;;;;3.63;81.75;99428.47;10231144;28;20053;-66
2020/12/30 05:05:02;;;;;;;45.78;25.35;;;;;;;3.62;82.26;99437.66;10222627;28;20724;-64
2020/12/30 05:09:58;;;;;;;37.45;24.15;;;;;;;3.65;81.79;99429.75;10218938;28;20112;-65
2020/12/30 05:14:54;;;;;;;37.10;24.13;;;;;;;3.75;82.04;99442.25;10229566;28;20053;-66
2020/12/30 05:19:50;;;;;;;41.17;22.38;;;;;;;3.63;81.46;99429.25;10242089;28;20057;-66
2020/12/30 05:24:48;;;;;;;36.83;19.42;;;;;;;3.54;81.82;99442.66;10214998;28;20042;-67
2020/12/30 05:29:46;;;;;;;38.08;23.25;;;;;;;3.70;81.75;99445.06;10235095;28;20049;-66
2020/12/30 05:34:43;;;;;;;34.22;21.90;;;;;;;3.59;81.34;99453.38;10249746;28;20040;-66
2020/12/30 05:39:39;;;;;;;34.83;22.48;;;;;;;3.62;82.12;99454.69;10226207;28;20045;-65
2020/12/30 05:44:35;;;;;;;37.95;22.17;;;;;;;3.67;81.28;99457.28;10246691;28;20048;-65
2020/12/30 05:49:34;;;;;;;38.92;24.25;;;;;;;3.66;81.80;99454.88;10217742;28;20088;-66
2020/12/30 05:54:37;;;;;;;28.55;18.70;;;;;;;3.55;82.09;99460.50;10246945;28;20505;-66
2020/12/30 05:59:38;;;;;;;33.90;21.55;;;;;;;3.63;81.89;99466.28;10236780;28;20457;-66
2020/12/30 06:04:34;;;;;;;33.35;21.67;;;;;;;3.62;81.11;99472.78;10239912;28;20042;-66
2020/12/30 06:09:38;;;;;;;33.20;21.98;;;;;;;3.60;80.84;99475.81;10233410;28;20046;-66
2020/12/30 06:14:34;;;;;;;33.50;20.90;;;;;;;3.57;81.08;99485.31;10235878;28;20111;-65
2020/12/30 06:19:42;;;;;;;31.75;20.10;;;;;;;3.67;80.33;99484.31;10237899;28;20477;-66
2020/12/30 06:24:55;;;;;;;30.73;20.17;;;;;;;3.68;79.98;99496.72;10232991;28;20049;-66
2020/12/30 06:29:55;;;;;;;33.13;20.23;;;;;;;3.72;80.19;99488.81;10212997;28;20060;-66
2020/12/30 06:34:52;;;;;;;29.13;18.20;;;;;;;3.65;79.62;99497.31;10217008;28;20046;-65
2020/12/30 06:39:48;;;;;;;33.38;18.05;;;;;;;3.56;79.66;99505.34;10232091;28;20316;-65
2020/12/30 06:44:44;;;;;;;31.55;21.00;;;;;;;3.71;80.28;99506.13;10234662;28;20049;-66
2020/12/30 06:49:40;;;;;;;32.60;20.42;;;;;;;3.75;79.64;99507.13;10220183;28;20191;-66
2020/12/30 06:54:48;;;;;;;31.50;19.83;;;;;;;3.72;79.60;99516.66;10237109;28;20049;-66
2020/12/30 06:59:44;;;;;;;31.55;21.67;;;;;;;3.60;80.28;99521.75;10225516;28;20049;-67
2020/12/30 07:04:59;;;;;;;31.55;19.42;;;;;;;3.67;80.06;99537.59;10233844;28;20416;-67
2020/12/30 07:09:54;;;;;;;;;;;;;;;3.59;79.80;99547.19;10225917;28;20053;-66
2020/12/30 07:14:50;;;;;;;30.08;19.48;;;;;;;3.65;79.58;99545.97;10239938;28;19920;-66
2020/12/30 07:19:48;;;;;;;34.05;22.35;;;;;;;3.63;79.97;99547.38;10245332;28;20519;-66
2020/12/30 07:24:51;;;;;;;31.40;20.70;;;;;;;3.72;79.72;99561.81;10220866;28;20046;-66
2020/12/30 07:29:48;;;;;;;29.52;20.80;;;;;;;3.64;80.11;99565.19;10215431;28;20080;-66
2020/12/30 07:34:46;;;;;;;30.55;20.00;;;;;;;3.65;79.57;99572.22;10243302;28;20103;-67
2020/12/30 07:39:47;;;;;;;34.70;22.30;;;;;;;3.55;79.90;99582.13;10239252;28;20080;-66
2020/12/30 07:44:54;;;;;;;32.05;20.17;;;;;;;3.66;80.09;99574.59;10230035;28;20046;-67
2020/12/30 07:49:50;;;;;;;26.92;15.63;;;;;;;3.50;79.63;99587.59;10230155;28;20049;-66
2020/12/30 07:54:46;;;;;;;34.53;20.50;;;;;;;3.56;79.88;99591.81;10224035;28;20048;-66
2020/12/30 07:59:49;;;;;;;33.95;20.50;;;;;;;3.42;80.32;99596.41;10239805;28;20053;-65
2020/12/30 08:04:46;;;;;;;34.03;20.85;;;;;;;3.45;79.83;99601.22;10218389;28;20041;-65
2020/12/30 08:09:44;;;;;;;34.35;20.40;;;;;;;3.43;79.95;99616.91;10230909;28;20053;-66
2020/12/30 08:14:44;;;;;;;30.15;17.42;;;;;;;3.34;79.89;99621.41;10230935;28;20111;-64
2020/12/30 08:19:45;;;;;;;36.97;20.95;;;;;;;3.32;80.19;99634.44;10230792;28;20110;-65
2020/12/30 08:24:50;;;;;;;35.22;20.30;;;;;;;3.47;80.31;99642.25;10202831;28;20096;-67
2020/12/30 08:29:47;;;;;;;33.83;19.13;;;;;;;3.37;79.66;99642.44;10208403;28;20054;-67
2020/12/30 08:34:54;;;;;;;32.83;17.90;;;;;;;3.26;80.64;99636.38;10212107;28;20417;-67
2020/12/30 08:39:56;;;;;;;33.15;19.80;;;;;;;3.40;80.63;99631.03;10214070;28;20088;-67
2020/12/30 08:45:02;;;;;;;29.58;20.25;;;;;;;3.38;80.47;99649.44;10213575;28;20049;-66
2020/12/30 08:50:03;;;;;;;32.97;21.85;;;;;;;3.40;80.43;99646.44;10215627;28;20053;-66
2020/12/30 08:55:03;;;;;;;35.65;20.55;;;;;;;3.35;80.93;99663.53;10214102;28;20045;-65
2020/12/30 09:00:20;;;;;;;36.00;21.85;;;;;;;3.44;79.93;99666.38;10220230;28;20057;-66
2020/12/30 09:05:31;;;;;;;35.65;20.60;;;;;;;3.40;79.92;99663.44;10211649;28;20052;-65
2020/12/30 09:10:32;;;;;;;36.22;21.08;;;;;;;3.33;79.61;99685.44;10209572;28;20049;-65
2020/12/30 09:15:32;;;;;;;40.35;22.70;;;;;;;3.29;79.57;99667.41;10210535;28;20123;-65
2020/12/30 09:20:31;;;;;;;38.00;21.92;;;;;;;3.09;80.25;99680.16;10212256;28;20562;-64
2020/12/30 09:25:29;;;;;;;40.10;22.55;;;;;;;3.09;80.13;99680.16;10204466;28;20053;-62
2020/12/30 09:30:27;;;;;;;37.63;19.95;;;;;;;3.07;80.04;99693.16;10201963;28;20513;-64
2020/12/30 09:35:28;;;;;;;37.75;21.52;;;;;;;3.05;80.52;99703.44;10188062;28;20128;-64
2020/12/30 09:40:26;;;;;;;38.83;22.13;;;;;;;2.96;80.70;99680.88;10197622;28;20148;-65
2020/12/30 09:45:22;;;;;;;37.45;22.02;;;;;;;3.16;80.01;99691.38;10208874;28;20053;-64
2020/12/30 09:50:18;;;;;;;36.42;19.55;;;;;;;3.17;79.98;99687.56;10217128;28;20585;-64
2020/12/30 09:55:15;;;;;;;34.75;18.35;;;;;;;3.17;80.00;99703.78;10190339;28;20069;-66
2020/12/30 10:00:11;;;;;;;33.97;19.90;;;;;;;3.20;79.80;99707.00;10197519;28;20058;-66
2020/12/30 10:05:07;;;;;;;36.88;21.10;;;;;;;3.19;79.87;99708.09;10195912;28;20049;-65
2020/12/30 10:10:06;;;;;;;41.33;22.90;;;;;;;3.26;80.20;99700.44;10205322;28;20052;-66
2020/12/30 10:15:02;;;;;;;38.55;20.90;;;;;;;3.30;79.40;99712.25;10202799;28;20136;-66
2020/12/30 10:19:59;;;;;;;38.58;22.88;;;;;;;3.33;79.85;99717.88;10208434;28;20150;-65
2020/12/30 10:24:55;;;;;;;31.38;20.35;;;;;;;3.33;80.54;99715.16;10205900;28;20525;-64
2020/12/30 10:29:51;;;;;;;32.05;21.15;;;;;;;3.37;79.76;99718.09;10200366;28;20046;-65
2020/12/30 10:34:48;;;;;;;35.33;18.88;;;;;;;3.31;79.57;99719.25;10217182;28;20050;-66
2020/12/30 10:39:45;;;;;;;31.50;18.55;;;;;;;3.34;79.41;99724.91;10220014;28;20050;-65
2020/12/30 10:44:41;;;;;;;30.40;19.35;;;;;;;3.39;79.65;99721.31;10209911;28;20108;-66
2020/12/30 10:49:38;;;;;;;29.88;17.08;;;;;;;3.35;79.82;99725.69;10207967;28;20054;-65
2020/12/30 10:54:34;;;;;;;36.08;19.58;;;;;;;3.19;80.68;99727.00;10210235;28;20065;-64
2020/12/30 10:59:30;;;;;;;36.72;20.52;;;;;;;3.33;80.36;99723.28;10186498;28;20528;-65
2020/12/30 11:04:26;;;;;;;36.13;20.55;;;;;;;3.34;80.71;99718.66;10228924;28;20041;-65
2020/12/30 11:09:23;;;;;;;34.55;18.85;;;;;;;3.46;80.80;99721.75;10213013;28;20428;-65
2020/12/30 11:14:19;;;;;;;35.05;19.90;;;;;;;3.44;80.74;99718.53;10233880;28;20053;-64
2020/12/30 11:19:16;;;;;;;35.22;21.02;;;;;;;3.47;80.82;99734.13;10231336;28;20041;-64
2020/12/30 11:24:12;;;;;;;29.60;18.73;;;;;;;3.35;80.99;99725.69;10230521;28;20045;-64
2020/12/30 11:29:08;;;;;;;28.38;17.30;;;;;;;3.34;81.09;99724.06;10209264;28;20045;-65
2020/12/30 11:34:04;;;;;;;31.60;18.63;;;;;;;3.41;80.30;99719.09;10210360;28;20080;-64
2020/12/30 11:39:00;;;;;;;30.50;18.58;;;;;;;3.50;80.39;99722.72;10213327;28;20045;-65
2020/12/30 11:43:56;;;;;;;28.00;15.13;;;;;;;3.27;80.29;99734.44;10210926;28;20045;-64
2020/12/30 11:48:53;;;;;;;33.38;19.98;;;;;;;3.36;80.78;99729.97;10220232;28;20057;-65
2020/12/30 11:53:49;;;;;;;32.30;19.23;;;;;;;3.42;81.20;99718.00;10225903;28;20079;-65
2020/12/30 11:58:46;;;;;;;30.80;17.98;;;;;;;3.55;80.00;99719.97;10236438;28;20880;-65
2020/12/30 12:03:42;;;;;;;34.60;20.02;;;;;;;3.47;80.53;99723.31;10215706;28;20053;-64
2020/12/30 12:08:39;;;;;;;34.92;21.85;;;;;;;3.49;81.35;99748.16;10196666;28;20057;-65
2020/12/30 12:13:35;;;;;;;35.50;19.95;;;;;;;3.54;80.12;99745.38;10216699;28;20072;-65
2020/12/30 12:18:32;;;;;;;31.75;20.35;;;;;;;3.78;80.20;99739.03;10209088;28;20049;-65
2020/12/30 12:23:28;;;;;;;36.28;21.48;;;;;;;3.55;80.81;99736.19;10213294;28;20045;-65
2020/12/30 12:28:37;;;;;;;36.15;20.30;;;;;;;3.78;80.41;99739.88;10195862;28;20052;-65
2020/12/30 12:33:33;;;;;;;36.90;21.92;;;;;;;3.68;80.70;99740.00;10187932;28;20128;-65
2020/12/30 12:38:30;;;;;;;34.47;19.02;;;;;;;3.63;80.43;99742.00;10219896;28;20524;-64
2020/12/30 12:43:26;;;;;;;37.25;21.48;;;;;;;3.50;80.91;99740.84;10214489;28;20065;-66
2020/12/30 12:48:22;;;;;;;34.20;19.25;;;;;;;3.68;81.31;99739.22;10203561;28;20089;-66
2020/12/30 12:53:18;;;;;;;31.40;19.38;;;;;;;3.61;81.44;99749.63;10230733;28;20077;-65
2020/12/30 12:58:14;;;;;;;34.00;21.60;;;;;;;3.82;81.12;99741.97;10221410;28;20053;-66
2020/12/30 13:03:10;;;;;;;35.78;19.95;;;;;;;3.86;80.97;99745.69;10224700;28;20393;-65
2020/12/30 13:08:06;;;;;;;33.80;21.27;;;;;;;3.76;80.89;99741.22;10225094;28;20053;-66
2020/12/30 13:13:02;;;;;;;35.00;20.33;;;;;;;3.64;81.46;99754.41;10211493;28;20476;-65
2020/12/30 13:17:59;;;;;;;34.92;20.90;;;;;;;3.89;80.67;99751.28;10195009;28;20513;-65
2020/12/30 13:22:55;;;;;;;35.60;22.45;;;;;;;3.78;81.44;99760.66;10220156;28;20041;-65
2020/12/30 13:27:51;;;;;;;34.85;22.92;;;;;;;3.85;81.11;99761.09;10229082;28;20405;-65
2020/12/30 13:32:47;;;;;;;37.67;23.23;;;;;;;3.84;80.90;99759.50;10233560;28;20045;-66
2020/12/30 13:37:43;;;;;;;37.58;22.17;;;;;;;3.84;80.89;99770.31;10222229;28;20153;-65
2020/12/30 13:42:40;;;;;;;35.55;21.63;;;;;;;3.85;81.46;99771.91;10218487;28;20117;-66
2020/12/30 13:47:37;;;;;;;38.15;21.92;;;;;;;3.90;80.98;99769.13;10192693;28;20054;-66
2020/12/30 13:52:33;;;;;;;34.88;21.15;;;;;;;3.87;81.29;99774.31;10201487;28;20068;-65
2020/12/30 13:57:29;;;;;;;37.00;22.08;;;;;;;3.96;81.11;99783.38;10197786;28;20412;-65
2020/12/30 14:02:25;;;;;;;33.83;20.58;;;;;;;3.89;81.41;99782.94;10200315;28;20152;-65
2020/12/30 14:07:21;;;;;;;31.92;20.42;;;;;;;3.93;81.43;99784.75;10210669;28;20516;-65
2020/12/30 14:12:17;;;;;;;32.22;20.17;;;;;;;3.98;80.36;99797.41;10212525;28;20050;-66
2020/12/30 14:17:14;;;;;;;31.17;20.50;;;;;;;3.97;80.76;99793.91;10206838;28;20710;-65
2020/12/30 14:22:10;;;;;;;31.20;19.92;;;;;;;3.98;80.95;99800.91;10214650;28;20318;-65
2020/12/30 14:27:06;;;;;;;28.70;19.13;;;;;;;3.93;81.21;99811.00;10192126;28;21265;-63
2020/12/30 14:32:02;;;;;;;32.95;18.60;;;;;;;4.03;80.85;99802.72;10207580;28;20091;-64
2020/12/30 14:37:00;;;;;;;30.50;19.33;;;;;;;4.02;81.10;99819.25;10192492;28;20046;-64
2020/12/30 14:41:57;;;;;;;27.67;18.60;;;;;;;4.04;80.84;99812.47;10200518;28;20069;-65
2020/12/30 14:46:53;;;;;;;28.15;17.98;;;;;;;4.07;80.99;99821.88;10206912;28;20103;-64
2020/12/30 14:51:51;;;;;;;28.77;18.23;;;;;;;4.04;80.34;99823.28;10205410;28;20041;-65
2020/12/30 14:56:51;;;;;;;29.88;17.60;;;;;;;4.00;81.09;99828.47;10212718;28;20562;-65
2020/12/30 15:01:47;;;;;;;26.58;16.83;;;;;;;4.01;80.74;99831.97;10204208;28;20077;-64
2020/12/30 15:06:43;;;;;;;28.70;15.02;;;;;;;3.94;80.63;99851.28;10208326;28;20045;-66
2020/12/30 15:11:39;;;;;;;26.27;17.55;;;;;;;4.08;80.91;99837.78;10211664;28;20080;-65
2020/12/30 15:16:35;;;;;;;31.08;18.85;;;;;;;3.97;80.69;99844.50;10217277;28;20110;-63
2020/12/30 15:21:31;;;;;;;29.77;19.63;;;;;;;4.02;80.97;99841.69;10211694;28;20346;-65
2020/12/30 15:26:27;;;;;;;27.80;16.35;;;;;;;4.08;80.18;99851.31;10222052;28;20468;-66
2020/12/30 15:31:23;;;;;;;31.83;17.95;;;;;;;3.97;80.35;99853.41;10229787;28;20045;-65
2020/12/30 15:36:19;;;;;;;27.90;17.13;;;;;;;4.09;80.47;99857.56;10221147;28;20060;-63
2020/12/30 15:41:16;;;;;;;28.35;17.48;;;;;;;4.11;80.12;99860.78;10236798;28;20044;-63
2020/12/30 15:46:14;;;;;;;26.92;16.15;;;;;;;4.09;80.20;99862.97;10226511;28;20049;-64
2020/12/30 15:51:15;;;;;;;26.00;15.75;;;;;;;4.20;79.10;99867.09;10233130;28;20198;-65
2020/12/30 15:56:16;;;;;;;27.98;16.88;;;;;;;4.11;79.33;99868.91;10220994;28;20995;-65
2020/12/30 16:01:12;;;;;;;26.23;17.50;;;;;;;4.18;80.02;99872.03;10219815;28;20047;-64
2020/12/30 16:06:09;;;;;;;24.95;16.65;;;;;;;4.12;79.64;99874.00;10225530;28;20041;-65
2020/12/30 16:11:06;;;;;;;25.67;16.23;;;;;;;4.07;79.89;99870.56;10229122;28;20464;-65
2020/12/30 16:16:05;;;;;;;24.33;15.25;;;;;;;4.01;80.54;99877.94;10212371;28;20046;-65
2020/12/30 16:21:01;;;;;;;29.13;18.13;;;;;;;4.11;80.76;99871.59;10227327;28;20132;-65
2020/12/30 16:26:00;;;;;;;31.00;17.40;;;;;;;4.27;80.38;99885.66;10212679;28;20417;-65
2020/12/30 16:31:04;;;;;;;29.35;17.63;;;;;;;4.20;79.60;99888.75;10200052;28;20049;-66
2020/12/30 16:36:00;;;;;;;27.67;17.33;;;;;;;4.16;80.06;99887.75;10203369;28;20045;-65
2020/12/30 16:40:56;;;;;;;25.90;17.00;;;;;;;4.18;79.92;99889.06;10207559;28;20058;-65
2020/12/30 16:45:52;;;;;;;30.52;18.52;;;;;;;4.11;80.22;99893.25;10202353;28;20072;-65
2020/12/30 16:50:48;;;;;;;27.70;17.90;;;;;;;4.21;80.56;99909.31;10207508;28;20081;-64
2020/12/30 16:55:47;;;;;;;28.15;17.17;;;;;;;4.09;80.28;99900.84;10202732;28;20416;-66
2020/12/30 17:00:44;;;;;;;26.58;18.48;;;;;;;4.17;79.52;99913.69;10204593;28;20053;-65
2020/12/30 17:05:41;;;;;;;25.20;17.17;;;;;;;4.20;80.18;99919.31;10206698;28;20058;-65
2020/12/30 17:10:37;;;;;;;29.13;17.73;;;;;;;4.20;80.15;99896.84;10201985;28;20050;-65
2020/12/30 17:15:33;;;;;;;25.85;15.88;;;;;;;4.28;80.17;99898.91;10202836;28;20053;-65
2020/12/30 17:20:29;;;;;;;26.90;16.30;;;;;;;4.30;79.66;99912.94;10196148;28;20069;-66
2020/12/30 17:25:25;;;;;;;27.17;17.80;;;;;;;4.29;80.08;99916.72;10212656;28;20079;-65
2020/12/30 17:30:21;;;;;;;27.42;17.10;;;;;;;4.14;80.65;99919.69;10217327;28;20445;-66
2020/12/30 17:35:17;;;;;;;29.13;18.48;;;;;;;4.15;80.16;99915.88;10219369;28;20107;-65
2020/12/30 17:40:13;;;;;;;28.25;18.20;;;;;;;4.20;80.13;99926.63;10217096;28;20054;-66
2020/12/30 17:45:10;;;;;;;30.17;17.52;;;;;;;4.17;80.61;99929.91;10204702;28;20053;-65
2020/12/30 17:50:06;;;;;;;23.17;15.43;;;;;;;4.16;80.49;99939.16;10210927;28;20054;-65
2020/12/30 17:55:04;;;;;;;27.00;17.05;;;;;;;4.05;81.00;99943.09;10203412;28;20536;-65
2020/12/30 18:00:00;;;;;;;23.15;15.18;;;;;;;4.05;80.26;99951.22;10211473;28;20416;-66
2020/12/30 18:04:56;;;;;;;24.98;15.30;;;;;;;4.12;80.61;99938.13;10194108;28;20139;-65
2020/12/30 18:09:52;;;;;;;30.23;16.65;;;;;;;4.07;80.34;99946.31;10205011;28;20052;-65
2020/12/30 18:14:51;;;;;;;24.70;15.95;;;;;;;4.02;81.20;99943.69;10203978;28;20049;-66
2020/12/30 18:19:48;;;;;;;27.40;17.85;;;;;;;3.98;81.66;99940.75;10198933;28;20054;-66
2020/12/30 18:24:44;;;;;;;27.58;18.20;;;;;;;3.92;81.73;99956.25;10220976;28;20141;-65
2020/12/30 18:29:40;;;;;;;28.83;17.17;;;;;;;3.89;82.22;99956.81;10217245;28;20053;-64
2020/12/30 18:34:38;;;;;;;29.13;18.70;;;;;;;3.93;81.68;99963.28;10211876;28;20061;-63
2020/12/30 18:39:34;;;;;;;30.55;17.70;;;;;;;4.00;81.96;99969.13;10207998;28;20104;-64
2020/12/30 18:44:30;;;;;;;33.03;19.42;;;;;;;4.04;82.18;99968.53;10204210;28;20417;-62
2020/12/30 18:49:26;;;;;;;29.85;18.23;;;;;;;4.03;81.91;99977.75;10208390;28;20061;-64
2020/12/30 18:54:22;;;;;;;33.47;20.13;;;;;;;4.04;82.01;99982.06;10201101;28;20587;-64
2020/12/30 18:59:18;;;;;;;32.45;20.95;;;;;;;4.05;82.36;99970.16;10206179;28;20473;-64
2020/12/30 19:04:14;;;;;;;33.55;20.95;;;;;;;3.97;82.98;99990.56;10169293;28;20037;-64
2020/12/30 19:09:10;;;;;;;33.25;19.90;;;;;;;4.01;82.34;99991.56;10203860;28;20676;-64
2020/12/30 19:14:06;;;;;;;34.05;20.83;;;;;;;3.91;82.76;99991.72;10193930;28;20045;-61
2020/12/30 19:19:02;;;;;;;31.10;19.98;;;;;;;3.95;82.18;99988.13;10197091;28;20056;-64
2020/12/30 19:23:59;;;;;;;34.05;20.85;;;;;;;4.00;81.81;99996.16;10192197;28;20135;-64
2020/12/30 19:28:55;;;;;;;31.08;18.08;;;;;;;3.93;82.45;99993.03;10206337;28;20049;-64
2020/12/30 19:33:53;;;;;;;32.40;20.08;;;;;;;4.02;81.61;99986.97;10205172;28;20096;-64
2020/12/30 19:38:49;;;;;;;35.90;20.58;;;;;;;4.04;81.56;99995.56;10199159;28;20064;-65
2020/12/30 19:43:46;;;;;;;30.55;20.77;;;;;;;4.05;81.69;100002.63;10204062;28;20171;-64
2020/12/30 19:48:44;;;;;;;36.38;21.02;;;;;;;3.99;81.91;99991.88;10195946;28;20057;-65
2020/12/30 19:53:40;;;;;;;37.25;21.73;;;;;;;4.13;81.82;99993.81;10183402;28;20046;-63
2020/12/30 19:58:44;;;;;;;32.92;20.30;;;;;;;4.10;81.77;99999.84;10190231;28;20100;-65
2020/12/30 20:03:40;;;;;;;33.58;20.50;;;;;;;4.17;81.50;99995.66;10199747;28;20103;-63
2020/12/30 20:08:36;;;;;;;34.00;19.13;;;;;;;4.06;81.88;100004.22;10202843;28;20052;-64
2020/12/30 20:13:32;;;;;;;31.73;19.95;;;;;;;4.04;81.67;100006.41;10201579;28;20050;-64
2020/12/30 20:18:28;;;;;;;30.77;18.23;;;;;;;4.10;81.16;100010.66;10201971;28;20128;-63
2020/12/30 20:23:24;;;;;;;32.25;20.42;;;;;;;4.11;81.81;100012.28;10214913;28;20630;-64
2020/12/30 20:28:20;;;;;;;40.42;23.60;;;;;;;4.02;81.64;100016.72;10185927;28;20049;-63
2020/12/30 20:33:17;;;;;;;30.60;19.73;;;;;;;4.15;80.63;100019.50;10177823;28;20087;-64
2020/12/30 20:38:13;;;;;;;28.23;17.65;;;;;;;4.08;80.67;100034.47;10203515;28;20106;-64
2020/12/30 20:43:09;;;;;;;29.90;17.65;;;;;;;4.13;81.02;100021.72;10206448;28;20049;-64
2020/12/30 20:48:05;;;;;;;28.75;19.40;;;;;;;4.06;81.08;100031.25;10222601;28;20048;-64
2020/12/30 20:53:02;;;;;;;28.67;18.65;;;;;;;4.10;81.10;100026.88;10214743;28;20501;-63
2020/12/30 20:57:58;;;;;;;28.17;18.92;;;;;;;4.19;81.00;100030.56;10201201;28;20048;-64
2020/12/30 21:02:55;;;;;;;27.02;17.95;;;;;;;4.10;80.87;100032.28;10212311;28;20432;-64
2020/12/30 21:07:51;;;;;;;25.30;17.08;;;;;;;4.19;80.53;100035.97;10215189;28;20048;-63
2020/12/30 21:12:47;;;;;;;28.52;16.92;;;;;;;4.19;80.02;100036.75;10206572;28;20099;-63
2020/12/30 21:17:43;;;;;;;25.65;16.55;;;;;;;4.22;79.65;100040.78;10214298;28;20111;-63
2020/12/30 21:22:39;;;;;;;24.35;15.27;;;;;;;4.08;80.16;100045.31;10176313;28;20053;-64
2020/12/30 21:27:36;;;;;;;28.13;15.25;;;;;;;4.21;79.36;100044.59;10199956;28;20045;-64
2020/12/30 21:32:32;;;;;;;26.50;17.20;;;;;;;4.23;79.93;100045.13;10206243;28;20038;-64
2020/12/30 21:37:29;;;;;;;23.92;16.48;;;;;;;4.11;80.42;100039.34;10201819;28;20065;-62
2020/12/30 21:42:26;;;;;;;26.23;16.75;;;;;;;4.34;79.77;100045.75;10190284;28;20053;-64
2020/12/30 21:47:22;;;;;;;22.98;13.40;;;;;;;4.16;79.35;100048.19;10181804;28;20977;-64
2020/12/30 21:52:19;;;;;;;24.85;15.88;;;;;;;4.32;78.75;100050.69;10193882;28;20057;-64
2020/12/30 21:57:15;;;;;;;23.60;15.55;;;;;;;4.42;78.88;100051.31;10190820;28;20072;-64
2020/12/30 22:02:11;;;;;;;23.85;15.07;;;;;;;4.39;78.34;100046.50;10191027;28;20046;-64
2020/12/30 22:07:09;;;;;;;26.15;15.68;;;;;;;4.47;78.43;100055.06;10197032;28;20484;-63
2020/12/30 22:12:05;;;;;;;22.13;15.68;;;;;;;4.49;78.08;100055.56;10195902;28;20073;-64
2020/12/30 22:17:01;;;;;;;25.77;16.60;;;;;;;4.45;78.69;100065.38;10198621;28;20042;-64
2020/12/30 22:21:57;;;;;;;22.75;14.82;;;;;;;4.48;78.15;100062.06;10201989;28;20330;-63
2020/12/30 22:26:53;;;;;;;23.60;14.02;;;;;;;4.45;78.67;100071.59;10202155;28;20477;-63
2020/12/30 22:31:51;;;;;;;23.45;16.08;;;;;;;4.51;78.47;100085.88;10212097;28;20060;-64
2020/12/30 22:36:47;;;;;;;25.00;16.30;;;;;;;4.45;79.19;100087.03;10199815;28;20053;-63
2020/12/30 22:41:48;;;;;;;22.27;14.90;;;;;;;4.29;79.53;100087.22;10211648;28;20099;-64
2020/12/30 22:46:47;;;;;;;23.85;16.17;;;;;;;4.39;80.04;100083.59;10205873;28;20073;-65